Pride Of Bruges — PGJW — position and weather

sailwx.info

Track history (hours):
 
Tides and Currents Weather Stations Pressure Air Temp Water Temp Dewpoint Dewpoint Depression Visibility Wind Speed Wind Dir Waves Ship Positions

Pride Of Bruges

Operator: P&O Ferries

Last reported at 2019-Jul-22 14:30 UTC. Time now 2019-Jul-22 14:46 UTC.
Position N 53°45' W 000°16'.

Length 180 m; draft 5.6 m.

Type: Ship. MMSI: 244387000.

Date/timePositionNaut miles runAvg speedWind from/ knotsBaromVisibWave heightAir tempDewpointWater temp
2019-Jul-22 14:30N 53°45' W 000°16'0 0.0
2019-Jul-22 14:00N 53°45' W 000°16'0 0.0
2019-Jul-22 13:29N 53°45' W 000°16'0 0.0
2019-Jul-22 12:59N 53°45' W 000°16'0 0.0
2019-Jul-22 12:29N 53°45' W 000°16'0 0.0
2019-Jul-22 11:59N 53°45' W 000°16'0 0.0
2019-Jul-22 11:29N 53°45' W 000°16'0 0.0
2019-Jul-22 10:58N 53°45' W 000°16'0 0.0
2019-Jul-22 10:28N 53°45' W 000°16'0 0.0
2019-Jul-22 09:58N 53°45' W 000°16'0 0.0
2019-Jul-22 09:28N 53°45' W 000°16'0 0.0
2019-Jul-22 09:00N 53°45' W 000°16'0 0.0
2019-Jul-22 08:30N 53°45' W 000°16'0 0.0
2019-Jul-22 08:00N 53°45' W 000°16'0 0.0
2019-Jul-22 07:30N 53°45' W 000°16'0 0.3
2019-Jul-22 07:00N 53°45' W 000°16'0 0.5
2019-Jul-22 06:30N 53°44' W 000°16'611.3
2019-Jul-22 06:01N 53°39' W 000°12'713.6
2019-Jul-22 05:30N 53°36' W 000°02'816.0
2019-Jul-22 05:00N 53°33' E 000°10'814.8
2019-Jul-22 04:30N 53°33' E 000°23'4414.8
2019-Jul-22 01:33N 53°07' E 001°21'214.7
2019-Jul-22 01:25N 53°05' E 001°23'1314.1
2019-Jul-22 00:28N 52°55' E 001°38'613.4
2019-Jul-22 00:00N 52°50' E 001°44'613.0
2019-Jul-21 23:30N 52°45' E 001°51'612.7
2019-Jul-21 23:01N 52°40' E 001°58'612.7
2019-Jul-21 22:31N 52°35' E 002°02'713.4
2019-Jul-21 22:00N 52°28' E 002°06'714.4
2019-Jul-21 21:30N 52°22' E 002°11'714.9
2019-Jul-21 21:00N 52°15' E 002°16'815.5
2019-Jul-21 20:30N 52°08' E 002°21'815.8
2019-Jul-21 20:00N 52°01' E 002°26'815.9
2019-Jul-21 19:30N 51°53' E 002°31'815.9
2019-Jul-21 19:00N 51°46' E 002°37'815.8
2019-Jul-21 18:30N 51°39' E 002°43'815.5
2019-Jul-21 18:00N 51°33' E 002°51'815.4
2019-Jul-21 17:30N 51°27' E 002°58'814.4
2019-Jul-21 16:58N 51°23' E 003°09'3 7.0
2019-Jul-21 16:30N 51°20' E 003°11'0 0.1
2019-Jul-21 16:00N 51°20' E 003°11'0 0.0
2019-Jul-21 15:30N 51°20' E 003°11'0 0.0
2019-Jul-21 15:00N 51°20' E 003°11'0 0.0
2019-Jul-21 14:30N 51°20' E 003°11'0 0.0
2019-Jul-21 14:01N 51°20' E 003°11'0 0.0
2019-Jul-21 13:31N 51°20' E 003°11'0 0.0
2019-Jul-21 13:01N 51°20' E 003°11'0 0.0
2019-Jul-21 12:30N 51°20' E 003°11'0 0.0
2019-Jul-21 12:00N 51°20' E 003°11'0 0.0
2019-Jul-21 11:29N 51°20' E 003°11'0 0.0
2019-Jul-21 11:00N 51°20' E 003°11'0 0.0
2019-Jul-21 10:30N 51°20' E 003°11'0 0.0
2019-Jul-21 10:00N 51°20' E 003°11'0 0.0
2019-Jul-21 09:30N 51°20' E 003°11'0 0.0
2019-Jul-21 09:00N 51°20' E 003°11'0 0.0
2019-Jul-21 08:30N 51°20' E 003°11'0 0.0
2019-Jul-21 07:59N 51°20' E 003°11'0 0.0
2019-Jul-21 07:30N 51°20' E 003°11'0 0.4
2019-Jul-21 07:00N 51°20' E 003°12'5 9.9
2019-Jul-21 06:30N 51°24' E 003°06'914.7
2019-Jul-21 05:55N 51°28' E 002°54'814.1
2019-Jul-21 05:23N 51°33' E 002°45'514.0
2019-Jul-21 05:00N 51°37' E 002°40'713.5
2019-Jul-21 04:30N 51°44' E 002°38'815.2
2019-Jul-21 04:00N 51°51' E 002°33'815.5
2019-Jul-21 03:30N 51°58' E 002°28'714.7
2019-Jul-21 03:00N 52°05' E 002°24'714.7
2019-Jul-21 02:30N 52°12' E 002°19'714.8
2019-Jul-21 02:00N 52°18' E 002°14'714.9
2019-Jul-21 01:30N 52°25' E 002°09'815.2
2019-Jul-21 01:00N 52°32' E 002°04'815.1
2019-Jul-21 00:30N 52°39' E 001°58'815.6
2019-Jul-21 00:00N 52°45' E 001°51'816.0
2019-Jul-20 23:30N 52°50' E 001°40'816.6
2019-Jul-20 23:00N 52°55' E 001°29'1116.9
2019-Jul-20 22:20N 53°01' E 001°13'4016.6
2019-Jul-20 19:56N 53°28' E 000°24'716.5
2019-Jul-20 19:30N 53°32' E 000°15'714.9
2019-Jul-20 19:00N 53°35' E 000°03'714.3
2019-Jul-20 18:30N 53°38' W 000°08'612.2
2019-Jul-20 18:00N 53°43' W 000°14'2 4.1
2019-Jul-20 17:30N 53°44' W 000°16'0 0.2
2019-Jul-20 17:00N 53°45' W 000°16'0 0.0
2019-Jul-20 16:30N 53°45' W 000°16'0 0.0
2019-Jul-20 15:59N 53°45' W 000°16'0 0.0
2019-Jul-20 15:28N 53°45' W 000°16'0 0.0
2019-Jul-20 14:58N 53°45' W 000°16'0 0.0
2019-Jul-20 14:28N 53°45' W 000°16'0 0.0
2019-Jul-20 13:58N 53°45' W 000°16'0 0.0
2019-Jul-20 13:28N 53°45' W 000°16'0 0.0
2019-Jul-20 13:00N 53°45' W 000°16'0 0.0
2019-Jul-20 12:30N 53°45' W 000°16'0 0.0
2019-Jul-20 12:00N 53°45' W 000°16'0 0.0
2019-Jul-20 11:30N 53°45' W 000°16'0 0.0
2019-Jul-20 10:59N 53°45' W 000°16'0 0.0
2019-Jul-20 10:29N 53°45' W 000°16'0 0.0
2019-Jul-20 09:59N 53°45' W 000°16'0 0.0
2019-Jul-20 09:29N 53°45' W 000°16'0 0.0
2019-Jul-20 08:59N 53°45' W 000°16'0 0.0
2019-Jul-20 08:28N 53°45' W 000°16'0 0.0
2019-Jul-20 07:58N 53°45' W 000°16'0 0.3
2019-Jul-20 07:30N 53°45' W 000°16'0 0.6
2019-Jul-20 07:00N 53°44' W 000°16'510.5
2019-Jul-20 06:30N 53°40' W 000°12'817.0
2019-Jul-20 06:01N 53°36' E 000°00'816.3
2019-Jul-20 05:30N 53°33' E 000°13'2713.7
2019-Jul-20 03:32N 53°22' E 000°55'013.7
2019-Jul-20 03:31N 53°22' E 000°55'1414.1
2019-Jul-20 02:32N 53°12' E 001°10'015.2
2019-Jul-20 02:30N 53°12' E 001°11'1515.2
2019-Jul-20 01:32N 53°01' E 001°27'015.2
2019-Jul-20 01:30N 53°00' E 001°28'814.9
2019-Jul-20 00:58N 52°55' E 001°37'614.0
2019-Jul-20 00:31N 52°50' E 001°44'713.8
2019-Jul-20 00:00N 52°45' E 001°52'713.9
2019-Jul-19 23:31N 52°39' E 001°58'713.6
2019-Jul-19 23:01N 52°33' E 002°03'713.7
2019-Jul-19 22:31N 52°26' E 002°08'713.9
2019-Jul-19 22:00N 52°20' E 002°13'714.0
2019-Jul-19 21:30N 52°14' E 002°17'714.1
2019-Jul-19 21:01N 52°07' E 002°22'714.5
2019-Jul-19 20:30N 52°01' E 002°26'1015.0
2019-Jul-19 19:49N 51°51' E 002°33'2215.5
2019-Jul-19 18:23N 51°32' E 002°51'815.5
2019-Jul-19 17:51N 51°26' E 002°60'615.6
2019-Jul-19 17:29N 51°24' E 003°09'4 7.5
2019-Jul-19 16:59N 51°20' E 003°11'0 0.0
2019-Jul-19 16:30N 51°20' E 003°11'0 0.0
2019-Jul-19 16:00N 51°20' E 003°11'0 0.0
2019-Jul-19 15:30N 51°20' E 003°11'0 0.0
2019-Jul-19 15:00N 51°20' E 003°11'0 0.0
2019-Jul-19 14:30N 51°20' E 003°11'0 0.0
2019-Jul-19 13:57N 51°20' E 003°11'0 0.0
2019-Jul-19 13:30N 51°20' E 003°11'0 0.0
2019-Jul-19 12:58N 51°20' E 003°11'0 0.0
2019-Jul-19 12:28N 51°20' E 003°11'0 0.0
2019-Jul-19 11:53N 51°20' E 003°11'0 0.0
2019-Jul-19 11:30N 51°20' E 003°11'0 0.0
2019-Jul-19 10:52N 51°20' E 003°11'0 0.0
2019-Jul-19 10:20N 51°20' E 003°11'0 0.0
2019-Jul-19 10:00N 51°20' E 003°11'0 0.0
2019-Jul-19 09:29N 51°20' E 003°11'0 0.0
2019-Jul-19 08:45N 51°20' E 003°11'0 0.0
2019-Jul-19 08:30N 51°20' E 003°11'0 0.0
2019-Jul-19 07:57N 51°20' E 003°11'0 0.0
2019-Jul-19 07:13N 51°20' E 003°11'0 0.0
2019-Jul-19 06:59N 51°20' E 003°11'1 2.0
2019-Jul-19 06:31N 51°21' E 003°12'714.4
2019-Jul-19 06:01N 51°25' E 003°02'815.1
2019-Jul-19 05:30N 51°29' E 002°52'714.8
2019-Jul-19 05:00N 51°34' E 002°44'714.5
2019-Jul-19 04:30N 51°40' E 002°38'714.7
2019-Jul-19 04:00N 51°47' E 002°35'713.2
2019-Jul-19 03:30N 51°54' E 002°33'714.7
2019-Jul-19 03:00N 52°00' E 002°27'715.0
2019-Jul-19 02:30N 52°07' E 002°22'815.2
2019-Jul-19 02:00N 52°14' E 002°17'815.4
2019-Jul-19 01:30N 52°21' E 002°13'815.4
2019-Jul-19 01:00N 52°29' E 002°08'815.7
2019-Jul-19 00:30N 52°35' E 002°02'816.0
2019-Jul-19 00:00N 52°42' E 001°55'816.5
2019-Jul-18 23:30N 52°48' E 001°45'917.0
2019-Jul-18 23:00N 52°53' E 001°33'917.1
2019-Jul-18 22:30N 52°58' E 001°22'1717.3
2019-Jul-18 21:31N 53°07' E 000°58'017.6
2019-Jul-18 21:30N 53°07' E 000°57'2917.1
2019-Jul-18 19:49N 53°28' E 000°24'516.8
2019-Jul-18 19:30N 53°31' E 000°17'816.0
2019-Jul-18 19:00N 53°34' E 000°05'815.2
2019-Jul-18 18:30N 53°37' W 000°07'713.1
2019-Jul-18 18:00N 53°42' W 000°14'2 4.8
2019-Jul-18 17:30N 53°44' W 000°16'0 0.3
2019-Jul-18 17:00N 53°45' W 000°16'0 0.0
2019-Jul-18 16:30N 53°45' W 000°16'0 0.0
2019-Jul-18 16:00N 53°45' W 000°16'0 0.0
2019-Jul-18 15:29N 53°45' W 000°16'0 0.0
2019-Jul-18 14:59N 53°45' W 000°16'0 0.0
2019-Jul-18 14:29N 53°45' W 000°16'0 0.0
2019-Jul-18 13:59N 53°45' W 000°16'0 0.0
2019-Jul-18 13:29N 53°45' W 000°16'0 0.0
2019-Jul-18 12:58N 53°45' W 000°16'0 0.0
2019-Jul-18 12:28N 53°45' W 000°16'0 0.0
2019-Jul-18 11:58N 53°45' W 000°16'0 0.0
2019-Jul-18 11:28N 53°45' W 000°16'0 0.0
2019-Jul-18 11:00N 53°45' W 000°16'0 0.0
2019-Jul-18 10:30N 53°45' W 000°16'0 0.0
2019-Jul-18 10:00N 53°45' W 000°16'0 0.0
2019-Jul-18 09:30N 53°45' W 000°16'0 0.0
2019-Jul-18 08:57N 53°45' W 000°16'0 0.0
2019-Jul-18 08:29N 53°45' W 000°16'0 0.0
2019-Jul-18 07:59N 53°45' W 000°16'0 0.0
2019-Jul-18 07:29N 53°45' W 000°16'0 0.2
2019-Jul-18 07:00N 53°45' W 000°16'0 0.9
2019-Jul-18 06:30N 53°44' W 000°17'612.6
2019-Jul-18 06:00N 53°39' W 000°11'816.1
2019-Jul-18 05:30N 53°35' E 000°01'815.7
2019-Jul-18 05:00N 53°33' E 000°14'713.0
2019-Jul-18 04:28N 53°30' E 000°24'2813.7
2019-Jul-18 02:26N 53°16' E 001°05'715.5
2019-Jul-18 02:01N 53°11' E 001°12'915.7
2019-Jul-18 01:26N 53°04' E 001°21'716.1
2019-Jul-18 01:01N 52°59' E 001°29'815.8
2019-Jul-18 00:30N 52°54' E 001°39'715.0
2019-Jul-18 00:00N 52°48' E 001°48'714.4
2019-Jul-17 23:30N 52°42' E 001°55'714.4
2019-Jul-17 23:00N 52°37' E 002°02'714.0
2019-Jul-17 22:30N 52°30' E 002°07'713.7
2019-Jul-17 22:00N 52°24' E 002°11'713.5
2019-Jul-17 21:30N 52°18' E 002°14'713.9
2019-Jul-17 21:01N 52°11' E 002°19'714.3
2019-Jul-17 20:31N 52°05' E 002°24'714.7
2019-Jul-17 20:01N 51°58' E 002°28'815.1
2019-Jul-17 19:30N 51°51' E 002°33'815.5
2019-Jul-17 19:00N 51°44' E 002°40'815.7
2019-Jul-17 18:31N 51°37' E 002°45'816.1
2019-Jul-17 18:00N 51°30' E 002°52'816.0
2019-Jul-17 17:30N 51°25' E 003°02'815.1
2019-Jul-17 17:00N 51°21' E 003°12'1 1.9
2019-Jul-17 16:30N 51°20' E 003°11'0 0.0
2019-Jul-17 16:00N 51°20' E 003°11'0 0.0
2019-Jul-17 15:30N 51°20' E 003°11'0 0.0
2019-Jul-17 15:00N 51°20' E 003°11'0 0.0
2019-Jul-17 14:30N 51°20' E 003°11'0 0.0
2019-Jul-17 13:59N 51°20' E 003°11'0 0.0
2019-Jul-17 13:29N 51°20' E 003°11'0 0.0
2019-Jul-17 12:59N 51°20' E 003°11'0 0.0
2019-Jul-17 12:30N 51°20' E 003°11'0 0.0
2019-Jul-17 12:00N 51°20' E 003°11'0 0.0
2019-Jul-17 11:30N 51°20' E 003°11'0 0.0
2019-Jul-17 11:00N 51°20' E 003°11'0 0.0
2019-Jul-17 10:30N 51°20' E 003°11'0 0.0
2019-Jul-17 10:00N 51°20' E 003°11'0 0.0
2019-Jul-17 09:30N 51°20' E 003°11'0 0.0
2019-Jul-17 09:00N 51°20' E 003°11'0 0.0
2019-Jul-17 08:30N 51°20' E 003°11'0 0.0
2019-Jul-17 08:00N 51°20' E 003°11'0 0.0
2019-Jul-17 07:30N 51°20' E 003°11'0 0.0
2019-Jul-17 07:00N 51°20' E 003°11'2 3.6
2019-Jul-17 06:31N 51°22' E 003°11'815.5
2019-Jul-17 06:01N 51°25' E 002°60'816.9
2019-Jul-17 05:31N 51°31' E 002°49'917.3
2019-Jul-17 05:00N 51°37' E 002°40'816.8
2019-Jul-17 04:31N 51°45' E 002°35'816.1
2019-Jul-17 04:01N 51°53' E 002°32'816.6
2019-Jul-17 03:31N 52°00' E 002°27'816.2
2019-Jul-17 03:01N 52°08' E 002°23'815.9
2019-Jul-17 02:31N 52°16' E 002°18'815.9
2019-Jul-17 02:01N 52°23' E 002°13'815.9
2019-Jul-17 01:31N 52°30' E 002°07'815.5
2019-Jul-17 01:01N 52°37' E 002°01'714.5
2019-Jul-17 00:31N 52°43' E 001°54'714.8
2019-Jul-17 00:01N 52°48' E 001°45'815.4
2019-Jul-16 23:31N 52°54' E 001°37'815.7
2019-Jul-16 23:01N 52°60' E 001°29'816.3
2019-Jul-16 22:30N 53°06' E 001°20'1616.4
2019-Jul-16 21:30N 53°18' E 001°02'2116.4
2019-Jul-16 20:12N 53°27' E 000°30'316.0
2019-Jul-16 20:01N 53°29' E 000°25'815.6
2019-Jul-16 19:31N 53°33' E 000°14'816.9
2019-Jul-16 19:00N 53°35' E 000°00'816.4
2019-Jul-16 18:30N 53°40' W 000°12'611.2
2019-Jul-16 18:00N 53°44' W 000°16'0 0.5
2019-Jul-16 17:28N 53°45' W 000°16'0 0.2
2019-Jul-16 17:00N 53°45' W 000°16'0 0.0
2019-Jul-16 16:30N 53°45' W 000°16'0 0.0
2019-Jul-16 16:00N 53°45' W 000°16'0 0.0
2019-Jul-16 15:30N 53°45' W 000°16'0 0.0
2019-Jul-16 15:00N 53°45' W 000°16'0 0.0
2019-Jul-16 14:30N 53°45' W 000°16'0 0.0
2019-Jul-16 14:00N 53°45' W 000°16'0 0.0
2019-Jul-16 13:30N 53°45' W 000°16'0 0.0
2019-Jul-16 13:00N 53°45' W 000°16'0 0.0
2019-Jul-16 12:30N 53°45' W 000°16'0 0.0
2019-Jul-16 12:00N 53°45' W 000°16'0 0.0
2019-Jul-16 11:30N 53°45' W 000°16'0 0.0
2019-Jul-16 11:00N 53°45' W 000°16'0 0.0
2019-Jul-16 10:30N 53°45' W 000°16'0 0.0
2019-Jul-16 10:00N 53°45' W 000°16'0 0.0
2019-Jul-16 09:30N 53°45' W 000°16'0 0.0
2019-Jul-16 09:00N 53°45' W 000°16'0 0.0
2019-Jul-16 08:30N 53°45' W 000°16'0 0.0
2019-Jul-16 08:00N 53°45' W 000°16'0 0.0
2019-Jul-16 07:30N 53°45' W 000°16'0 0.3
2019-Jul-16 07:00N 53°44' W 000°16'0 0.4
2019-Jul-16 06:30N 53°44' W 000°16'612.8
2019-Jul-16 06:00N 53°39' W 000°11'815.3
2019-Jul-16 05:30N 53°35' E 000°01'815.3
2019-Jul-16 05:00N 53°33' E 000°13'2813.7
2019-Jul-16 02:59N 53°21' E 000°55'1314.8
2019-Jul-16 02:06N 53°12' E 001°11'115.6
2019-Jul-16 02:00N 53°11' E 001°12'916.2
2019-Jul-16 01:28N 53°04' E 001°21'817.0
2019-Jul-16 01:01N 52°59' E 001°31'917.9
2019-Jul-16 00:31N 52°52' E 001°41'917.4
2019-Jul-16 00:01N 52°46' E 001°50'917.2
2019-Jul-15 23:31N 52°39' E 001°59'816.2
2019-Jul-15 23:01N 52°31' E 002°04'815.3
2019-Jul-15 22:31N 52°24' E 002°09'714.7
2019-Jul-15 22:01N 52°18' E 002°14'714.1
2019-Jul-15 21:30N 52°11' E 002°19'713.9
2019-Jul-15 21:00N 52°05' E 002°24'714.2
2019-Jul-15 20:30N 51°58' E 002°28'714.3
2019-Jul-15 20:00N 51°52' E 002°33'714.4
2019-Jul-15 19:30N 51°45' E 002°38'714.6
2019-Jul-15 19:00N 51°39' E 002°44'714.9
2019-Jul-15 18:30N 51°33' E 002°50'815.2
2019-Jul-15 18:01N 51°27' E 002°58'815.9
2019-Jul-15 17:30N 51°23' E 003°09'3 5.5
2019-Jul-15 16:56N 51°20' E 003°11'0 0.0
2019-Jul-15 16:29N 51°20' E 003°11'0 0.0
2019-Jul-15 15:56N 51°20' E 003°11'0 0.0
2019-Jul-15 15:28N 51°20' E 003°11'0 0.0
2019-Jul-15 14:58N 51°20' E 003°11'0 0.0
2019-Jul-15 14:28N 51°20' E 003°11'0 0.0
2019-Jul-15 13:58N 51°20' E 003°11'0 0.0
2019-Jul-15 13:25N 51°20' E 003°11'0 0.0
2019-Jul-15 12:57N 51°20' E 003°11'0 0.0
2019-Jul-15 12:18N 51°20' E 003°11'0 0.0
2019-Jul-15 12:00N 51°20' E 003°11'0 0.0
2019-Jul-15 11:27N 51°20' E 003°11'0 0.0
2019-Jul-15 10:59N 51°20' E 003°11'0 0.0
2019-Jul-15 10:29N 51°20' E 003°11'0 0.0
2019-Jul-15 09:56N 51°20' E 003°11'0 0.0
2019-Jul-15 09:23N 51°20' E 003°11'0 0.0
2019-Jul-15 08:53N 51°20' E 003°11'0 0.0
2019-Jul-15 08:28N 51°20' E 003°11'0 0.0
2019-Jul-15 07:52N 51°20' E 003°11'0 0.0
2019-Jul-15 07:25N 51°20' E 003°11'0 0.0
2019-Jul-15 07:00N 51°20' E 003°11'1 2.4
2019-Jul-15 06:30N 51°21' E 003°12'815.3
2019-Jul-15 06:01N 51°25' E 003°01'815.8
2019-Jul-15 05:30N 51°30' E 002°51'816.7
2019-Jul-15 05:00N 51°36' E 002°41'916.8
2019-Jul-15 04:30N 51°44' E 002°36'816.6
2019-Jul-15 04:01N 51°51' E 002°32'816.4
2019-Jul-15 03:30N 51°59' E 002°27'816.0
2019-Jul-15 03:00N 52°06' E 002°22'815.8
2019-Jul-15 02:31N 52°14' E 002°17'815.7
2019-Jul-15 02:01N 52°21' E 002°13'815.4
2019-Jul-15 01:30N 52°28' E 002°08'715.0
2019-Jul-15 01:00N 52°35' E 002°03'714.6
2019-Jul-15 00:30N 52°41' E 001°57'714.4
2019-Jul-15 00:01N 52°46' E 001°49'714.9
2019-Jul-14 23:31N 52°52' E 001°40'714.7
2019-Jul-14 23:01N 52°57' E 001°32'815.1
2019-Jul-14 22:30N 53°03' E 001°23'815.5
2019-Jul-14 22:00N 53°09' E 001°15'815.5
2019-Jul-14 21:30N 53°15' E 001°07'815.6
2019-Jul-14 21:00N 53°21' E 000°58'2116.0
2019-Jul-14 19:41N 53°29' E 000°25'315.8
2019-Jul-14 19:30N 53°30' E 000°21'815.4
2019-Jul-14 19:01N 53°33' E 000°09'918.6
2019-Jul-14 18:30N 53°37' W 000°05'816.3
2019-Jul-14 18:01N 53°43' W 000°15'2 3.8
2019-Jul-14 17:30N 53°44' W 000°16'0 0.2
2019-Jul-14 16:58N 53°45' W 000°16'0 0.0
2019-Jul-14 16:30N 53°45' W 000°16'0 0.0
2019-Jul-14 16:00N 53°45' W 000°16'0 0.0
2019-Jul-14 15:30N 53°45' W 000°16'0 0.0
2019-Jul-14 15:00N 53°45' W 000°16'0 0.0
2019-Jul-14 14:30N 53°45' W 000°16'0 0.0
2019-Jul-14 13:59N 53°45' W 000°16'0 0.0
2019-Jul-14 13:29N 53°45' W 000°16'0 0.0
2019-Jul-14 12:59N 53°45' W 000°16'0 0.0
2019-Jul-14 12:29N 53°45' W 000°16'0 0.0
2019-Jul-14 11:58N 53°45' W 000°16'0 0.0
2019-Jul-14 11:28N 53°45' W 000°16'0 0.0
2019-Jul-14 10:58N 53°45' W 000°16'0 0.0
2019-Jul-14 10:28N 53°45' W 000°16'0 0.0
2019-Jul-14 09:58N 53°45' W 000°16'0 0.0
2019-Jul-14 09:30N 53°45' W 000°16'0 0.0
2019-Jul-14 09:00N 53°45' W 000°16'0 0.0
2019-Jul-14 08:30N 53°45' W 000°16'0 0.0
2019-Jul-14 08:00N 53°45' W 000°16'0 0.2
2019-Jul-14 07:30N 53°44' W 000°16'0 0.3
2019-Jul-14 07:00N 53°44' W 000°17'3 6.2
2019-Jul-14 06:30N 53°42' W 000°14'611.7
2019-Jul-14 06:00N 53°38' W 000°07'713.5
2019-Jul-14 05:30N 53°35' E 000°03'713.9
2019-Jul-14 05:00N 53°33' E 000°15'6214.2
2019-Jul-14 00:36N 52°54' E 001°37'116.2
2019-Jul-14 00:30N 52°53' E 001°38'816.3
2019-Jul-14 00:00N 52°48' E 001°49'815.4
2019-Jul-13 23:30N 52°42' E 001°55'816.3
2019-Jul-13 23:00N 52°35' E 002°03'815.8
2019-Jul-13 22:30N 52°28' E 002°08'815.1
2019-Jul-13 22:00N 52°21' E 002°13'714.3
2019-Jul-13 21:30N 52°14' E 002°18'713.9
2019-Jul-13 21:00N 52°08' E 002°22'713.7
2019-Jul-13 20:28N 52°01' E 002°27'813.5
2019-Jul-13 19:54N 51°54' E 002°32'513.3
2019-Jul-13 19:29N 51°49' E 002°35'913.6
2019-Jul-13 18:48N 51°41' E 002°42'414.1
2019-Jul-13 18:30N 51°37' E 002°45'814.3
2019-Jul-13 17:57N 51°30' E 002°52'714.5
2019-Jul-13 17:30N 51°25' E 002°59'714.1
2019-Jul-13 17:00N 51°23' E 003°10'3 5.5
2019-Jul-13 16:30N 51°20' E 003°11'0 0.0
2019-Jul-13 15:51N 51°20' E 003°11'0 0.0
2019-Jul-13 15:30N 51°20' E 003°11'0 0.0
2019-Jul-13 15:00N 51°20' E 003°11'0 0.0
2019-Jul-13 14:30N 51°20' E 003°11'0 0.0
2019-Jul-13 13:56N 51°20' E 003°11'0 0.0
2019-Jul-13 13:17N 51°20' E 003°11'0 0.0
2019-Jul-13 12:53N 51°20' E 003°11'0 0.0
2019-Jul-13 12:20N 51°20' E 003°11'0 0.0
2019-Jul-13 11:56N 51°20' E 003°11'0 0.0
2019-Jul-13 11:25N 51°20' E 003°11'0 0.0
2019-Jul-13 10:58N 51°20' E 003°11'0 0.0
2019-Jul-13 10:28N 51°20' E 003°11'0 0.0
2019-Jul-13 09:58N 51°20' E 003°11'0 0.0
2019-Jul-13 09:27N 51°20' E 003°11'0 0.0
2019-Jul-13 08:51N 51°20' E 003°11'0 0.0
2019-Jul-13 08:21N 51°20' E 003°11'0 0.0
2019-Jul-13 07:45N 51°20' E 003°11'0 0.0
2019-Jul-13 07:27N 51°20' E 003°11'1 2.0
2019-Jul-13 07:00N 51°21' E 003°12'714.9
2019-Jul-13 06:30N 51°25' E 003°02'1815.5
2019-Jul-13 05:20N 51°37' E 002°40'616.0
2019-Jul-13 04:58N 51°42' E 002°37'1015.9
2019-Jul-13 04:21N 51°52' E 002°33'616.7
2019-Jul-13 04:00N 51°57' E 002°29'816.5
2019-Jul-13 03:30N 52°04' E 002°24'816.3
2019-Jul-13 03:00N 52°12' E 002°18'816.6
2019-Jul-13 02:30N 52°19' E 002°13'917.6
2019-Jul-13 02:00N 52°28' E 002°07'917.3
2019-Jul-13 01:30N 52°36' E 002°02'816.8
2019-Jul-13 01:00N 52°43' E 001°54'816.8
2019-Jul-13 00:30N 52°49' E 001°45'816.5
2019-Jul-13 00:00N 52°55' E 001°36'4915.7
2019-Jul-12 20:54N 53°27' E 000°35'715.5
2019-Jul-12 20:28N 53°31' E 000°26'715.3
2019-Jul-12 20:00N 53°33' E 000°14'816.5
2019-Jul-12 19:30N 53°35' E 000°01'715.0
2019-Jul-12 19:01N 53°38' W 000°10'612.6
2019-Jul-12 18:30N 53°44' W 000°16'1 1.9
2019-Jul-12 18:00N 53°44' W 000°16'0 0.2
2019-Jul-12 17:28N 53°45' W 000°16'0 0.0
2019-Jul-12 16:58N 53°45' W 000°16'0 0.0
2019-Jul-12 16:30N 53°45' W 000°16'0 0.0
2019-Jul-12 16:00N 53°45' W 000°16'0 0.0
2019-Jul-12 15:27N 53°45' W 000°16'0 0.0
2019-Jul-12 15:00N 53°45' W 000°16'  
Track history (hours):
 
Tides and Currents Weather Stations Pressure Air Temp Water Temp Dewpoint Dewpoint Depression Visibility Wind Speed Wind Dir Waves Ship Positions

Pride Of Bruges

Operator: P&O Ferries

Last reported at 2019-Jul-22 14:30 UTC. Time now 2019-Jul-22 14:46 UTC.
Position N 53°45' W 000°16'.

Length 180 m; draft 5.6 m.

Type: Ship. MMSI: 244387000.

Date/timePositionNaut miles runAvg speedWind from/ knotsBaromVisibWave heightAir tempDewpointWater temp
2019-Jul-22 14:30N 53°45' W 000°16'0 0.0
2019-Jul-22 14:00N 53°45' W 000°16'0 0.0
2019-Jul-22 13:29N 53°45' W 000°16'0 0.0
2019-Jul-22 12:59N 53°45' W 000°16'0 0.0
2019-Jul-22 12:29N 53°45' W 000°16'0 0.0
2019-Jul-22 11:59N 53°45' W 000°16'0 0.0
2019-Jul-22 11:29N 53°45' W 000°16'0 0.0
2019-Jul-22 10:58N 53°45' W 000°16'0 0.0
2019-Jul-22 10:28N 53°45' W 000°16'0 0.0
2019-Jul-22 09:58N 53°45' W 000°16'0 0.0
2019-Jul-22 09:28N 53°45' W 000°16'0 0.0
2019-Jul-22 09:00N 53°45' W 000°16'0 0.0
2019-Jul-22 08:30N 53°45' W 000°16'0 0.0
2019-Jul-22 08:00N 53°45' W 000°16'0 0.0
2019-Jul-22 07:30N 53°45' W 000°16'0 0.3
2019-Jul-22 07:00N 53°45' W 000°16'0 0.5
2019-Jul-22 06:30N 53°44' W 000°16'611.3
2019-Jul-22 06:01N 53°39' W 000°12'713.6
2019-Jul-22 05:30N 53°36' W 000°02'816.0
2019-Jul-22 05:00N 53°33' E 000°10'814.8
2019-Jul-22 04:30N 53°33' E 000°23'4414.8
2019-Jul-22 01:33N 53°07' E 001°21'214.7
2019-Jul-22 01:25N 53°05' E 001°23'1314.1
2019-Jul-22 00:28N 52°55' E 001°38'613.4
2019-Jul-22 00:00N 52°50' E 001°44'613.0
2019-Jul-21 23:30N 52°45' E 001°51'612.7
2019-Jul-21 23:01N 52°40' E 001°58'612.7
2019-Jul-21 22:31N 52°35' E 002°02'713.4
2019-Jul-21 22:00N 52°28' E 002°06'714.4
2019-Jul-21 21:30N 52°22' E 002°11'714.9
2019-Jul-21 21:00N 52°15' E 002°16'815.5
2019-Jul-21 20:30N 52°08' E 002°21'815.8
2019-Jul-21 20:00N 52°01' E 002°26'815.9
2019-Jul-21 19:30N 51°53' E 002°31'815.9
2019-Jul-21 19:00N 51°46' E 002°37'815.8
2019-Jul-21 18:30N 51°39' E 002°43'815.5
2019-Jul-21 18:00N 51°33' E 002°51'815.4
2019-Jul-21 17:30N 51°27' E 002°58'814.4
2019-Jul-21 16:58N 51°23' E 003°09'3 7.0
2019-Jul-21 16:30N 51°20' E 003°11'0 0.1
2019-Jul-21 16:00N 51°20' E 003°11'0 0.0
2019-Jul-21 15:30N 51°20' E 003°11'0 0.0
2019-Jul-21 15:00N 51°20' E 003°11'0 0.0
2019-Jul-21 14:30N 51°20' E 003°11'0 0.0
2019-Jul-21 14:01N 51°20' E 003°11'0 0.0
2019-Jul-21 13:31N 51°20' E 003°11'0 0.0
2019-Jul-21 13:01N 51°20' E 003°11'0 0.0
2019-Jul-21 12:30N 51°20' E 003°11'0 0.0
2019-Jul-21 12:00N 51°20' E 003°11'0 0.0
2019-Jul-21 11:29N 51°20' E 003°11'0 0.0
2019-Jul-21 11:00N 51°20' E 003°11'0 0.0
2019-Jul-21 10:30N 51°20' E 003°11'0 0.0
2019-Jul-21 10:00N 51°20' E 003°11'0 0.0
2019-Jul-21 09:30N 51°20' E 003°11'0 0.0
2019-Jul-21 09:00N 51°20' E 003°11'0 0.0
2019-Jul-21 08:30N 51°20' E 003°11'0 0.0
2019-Jul-21 07:59N 51°20' E 003°11'0 0.0
2019-Jul-21 07:30N 51°20' E 003°11'0 0.4
2019-Jul-21 07:00N 51°20' E 003°12'5 9.9
2019-Jul-21 06:30N 51°24' E 003°06'914.7
2019-Jul-21 05:55N 51°28' E 002°54'814.1
2019-Jul-21 05:23N 51°33' E 002°45'514.0
2019-Jul-21 05:00N 51°37' E 002°40'713.5
2019-Jul-21 04:30N 51°44' E 002°38'815.2
2019-Jul-21 04:00N 51°51' E 002°33'815.5
2019-Jul-21 03:30N 51°58' E 002°28'714.7
2019-Jul-21 03:00N 52°05' E 002°24'714.7
2019-Jul-21 02:30N 52°12' E 002°19'714.8
2019-Jul-21 02:00N 52°18' E 002°14'714.9
2019-Jul-21 01:30N 52°25' E 002°09'815.2
2019-Jul-21 01:00N 52°32' E 002°04'815.1
2019-Jul-21 00:30N 52°39' E 001°58'815.6
2019-Jul-21 00:00N 52°45' E 001°51'816.0
2019-Jul-20 23:30N 52°50' E 001°40'816.6
2019-Jul-20 23:00N 52°55' E 001°29'1116.9
2019-Jul-20 22:20N 53°01' E 001°13'4016.6
2019-Jul-20 19:56N 53°28' E 000°24'716.5
2019-Jul-20 19:30N 53°32' E 000°15'714.9
2019-Jul-20 19:00N 53°35' E 000°03'714.3
2019-Jul-20 18:30N 53°38' W 000°08'612.2
2019-Jul-20 18:00N 53°43' W 000°14'2 4.1
2019-Jul-20 17:30N 53°44' W 000°16'0 0.2
2019-Jul-20 17:00N 53°45' W 000°16'0 0.0
2019-Jul-20 16:30N 53°45' W 000°16'0 0.0
2019-Jul-20 15:59N 53°45' W 000°16'0 0.0
2019-Jul-20 15:28N 53°45' W 000°16'0 0.0
2019-Jul-20 14:58N 53°45' W 000°16'0 0.0
2019-Jul-20 14:28N 53°45' W 000°16'0 0.0
2019-Jul-20 13:58N 53°45' W 000°16'0 0.0
2019-Jul-20 13:28N 53°45' W 000°16'0 0.0
2019-Jul-20 13:00N 53°45' W 000°16'0 0.0
2019-Jul-20 12:30N 53°45' W 000°16'0 0.0
2019-Jul-20 12:00N 53°45' W 000°16'0 0.0
2019-Jul-20 11:30N 53°45' W 000°16'0 0.0
2019-Jul-20 10:59N 53°45' W 000°16'0 0.0
2019-Jul-20 10:29N 53°45' W 000°16'0 0.0
2019-Jul-20 09:59N 53°45' W 000°16'0 0.0
2019-Jul-20 09:29N 53°45' W 000°16'0 0.0
2019-Jul-20 08:59N 53°45' W 000°16'0 0.0
2019-Jul-20 08:28N 53°45' W 000°16'0 0.0
2019-Jul-20 07:58N 53°45' W 000°16'0 0.3
2019-Jul-20 07:30N 53°45' W 000°16'0 0.6
2019-Jul-20 07:00N 53°44' W 000°16'510.5
2019-Jul-20 06:30N 53°40' W 000°12'817.0
2019-Jul-20 06:01N 53°36' E 000°00'816.3
2019-Jul-20 05:30N 53°33' E 000°13'2713.7
2019-Jul-20 03:32N 53°22' E 000°55'013.7
2019-Jul-20 03:31N 53°22' E 000°55'1414.1
2019-Jul-20 02:32N 53°12' E 001°10'015.2
2019-Jul-20 02:30N 53°12' E 001°11'1515.2
2019-Jul-20 01:32N 53°01' E 001°27'015.2
2019-Jul-20 01:30N 53°00' E 001°28'814.9
2019-Jul-20 00:58N 52°55' E 001°37'614.0
2019-Jul-20 00:31N 52°50' E 001°44'713.8
2019-Jul-20 00:00N 52°45' E 001°52'713.9
2019-Jul-19 23:31N 52°39' E 001°58'713.6
2019-Jul-19 23:01N 52°33' E 002°03'713.7
2019-Jul-19 22:31N 52°26' E 002°08'713.9
2019-Jul-19 22:00N 52°20' E 002°13'714.0
2019-Jul-19 21:30N 52°14' E 002°17'714.1
2019-Jul-19 21:01N 52°07' E 002°22'714.5
2019-Jul-19 20:30N 52°01' E 002°26'1015.0
2019-Jul-19 19:49N 51°51' E 002°33'2215.5
2019-Jul-19 18:23N 51°32' E 002°51'815.5
2019-Jul-19 17:51N 51°26' E 002°60'615.6
2019-Jul-19 17:29N 51°24' E 003°09'4 7.5
2019-Jul-19 16:59N 51°20' E 003°11'0 0.0
2019-Jul-19 16:30N 51°20' E 003°11'0 0.0
2019-Jul-19 16:00N 51°20' E 003°11'0 0.0
2019-Jul-19 15:30N 51°20' E 003°11'0 0.0
2019-Jul-19 15:00N 51°20' E 003°11'0 0.0
2019-Jul-19 14:30N 51°20' E 003°11'0 0.0
2019-Jul-19 13:57N 51°20' E 003°11'0 0.0
2019-Jul-19 13:30N 51°20' E 003°11'0 0.0
2019-Jul-19 12:58N 51°20' E 003°11'0 0.0
2019-Jul-19 12:28N 51°20' E 003°11'0 0.0
2019-Jul-19 11:53N 51°20' E 003°11'0 0.0
2019-Jul-19 11:30N 51°20' E 003°11'0 0.0
2019-Jul-19 10:52N 51°20' E 003°11'0 0.0
2019-Jul-19 10:20N 51°20' E 003°11'0 0.0
2019-Jul-19 10:00N 51°20' E 003°11'0 0.0
2019-Jul-19 09:29N 51°20' E 003°11'0 0.0
2019-Jul-19 08:45N 51°20' E 003°11'0 0.0
2019-Jul-19 08:30N 51°20' E 003°11'0 0.0
2019-Jul-19 07:57N 51°20' E 003°11'0 0.0
2019-Jul-19 07:13N 51°20' E 003°11'0 0.0
2019-Jul-19 06:59N 51°20' E 003°11'1 2.0
2019-Jul-19 06:31N 51°21' E 003°12'714.4
2019-Jul-19 06:01N 51°25' E 003°02'815.1
2019-Jul-19 05:30N 51°29' E 002°52'714.8
2019-Jul-19 05:00N 51°34' E 002°44'714.5
2019-Jul-19 04:30N 51°40' E 002°38'714.7
2019-Jul-19 04:00N 51°47' E 002°35'713.2
2019-Jul-19 03:30N 51°54' E 002°33'714.7
2019-Jul-19 03:00N 52°00' E 002°27'715.0
2019-Jul-19 02:30N 52°07' E 002°22'815.2
2019-Jul-19 02:00N 52°14' E 002°17'815.4
2019-Jul-19 01:30N 52°21' E 002°13'815.4
2019-Jul-19 01:00N 52°29' E 002°08'815.7
2019-Jul-19 00:30N 52°35' E 002°02'816.0
2019-Jul-19 00:00N 52°42' E 001°55'816.5
2019-Jul-18 23:30N 52°48' E 001°45'917.0
2019-Jul-18 23:00N 52°53' E 001°33'917.1
2019-Jul-18 22:30N 52°58' E 001°22'1717.3
2019-Jul-18 21:31N 53°07' E 000°58'017.6
2019-Jul-18 21:30N 53°07' E 000°57'2917.1
2019-Jul-18 19:49N 53°28' E 000°24'516.8
2019-Jul-18 19:30N 53°31' E 000°17'816.0
2019-Jul-18 19:00N 53°34' E 000°05'815.2
2019-Jul-18 18:30N 53°37' W 000°07'713.1
2019-Jul-18 18:00N 53°42' W 000°14'2 4.8
2019-Jul-18 17:30N 53°44' W 000°16'0 0.3
2019-Jul-18 17:00N 53°45' W 000°16'0 0.0
2019-Jul-18 16:30N 53°45' W 000°16'0 0.0
2019-Jul-18 16:00N 53°45' W 000°16'0 0.0
2019-Jul-18 15:29N 53°45' W 000°16'0 0.0
2019-Jul-18 14:59N 53°45' W 000°16'0 0.0
2019-Jul-18 14:29N 53°45' W 000°16'0 0.0
2019-Jul-18 13:59N 53°45' W 000°16'0 0.0
2019-Jul-18 13:29N 53°45' W 000°16'0 0.0
2019-Jul-18 12:58N 53°45' W 000°16'0 0.0
2019-Jul-18 12:28N 53°45' W 000°16'0 0.0
2019-Jul-18 11:58N 53°45' W 000°16'0 0.0
2019-Jul-18 11:28N 53°45' W 000°16'0 0.0
2019-Jul-18 11:00N 53°45' W 000°16'0 0.0
2019-Jul-18 10:30N 53°45' W 000°16'0 0.0
2019-Jul-18 10:00N 53°45' W 000°16'0 0.0
2019-Jul-18 09:30N 53°45' W 000°16'0 0.0
2019-Jul-18 08:57N 53°45' W 000°16'0 0.0
2019-Jul-18 08:29N 53°45' W 000°16'0 0.0
2019-Jul-18 07:59N 53°45' W 000°16'0 0.0
2019-Jul-18 07:29N 53°45' W 000°16'0 0.2
2019-Jul-18 07:00N 53°45' W 000°16'0 0.9
2019-Jul-18 06:30N 53°44' W 000°17'612.6
2019-Jul-18 06:00N 53°39' W 000°11'816.1
2019-Jul-18 05:30N 53°35' E 000°01'815.7
2019-Jul-18 05:00N 53°33' E 000°14'713.0
2019-Jul-18 04:28N 53°30' E 000°24'2813.7
2019-Jul-18 02:26N 53°16' E 001°05'715.5
2019-Jul-18 02:01N 53°11' E 001°12'915.7
2019-Jul-18 01:26N 53°04' E 001°21'716.1
2019-Jul-18 01:01N 52°59' E 001°29'815.8
2019-Jul-18 00:30N 52°54' E 001°39'715.0
2019-Jul-18 00:00N 52°48' E 001°48'714.4
2019-Jul-17 23:30N 52°42' E 001°55'714.4
2019-Jul-17 23:00N 52°37' E 002°02'714.0
2019-Jul-17 22:30N 52°30' E 002°07'713.7
2019-Jul-17 22:00N 52°24' E 002°11'713.5
2019-Jul-17 21:30N 52°18' E 002°14'713.9
2019-Jul-17 21:01N 52°11' E 002°19'714.3
2019-Jul-17 20:31N 52°05' E 002°24'714.7
2019-Jul-17 20:01N 51°58' E 002°28'815.1
2019-Jul-17 19:30N 51°51' E 002°33'815.5
2019-Jul-17 19:00N 51°44' E 002°40'815.7
2019-Jul-17 18:31N 51°37' E 002°45'816.1
2019-Jul-17 18:00N 51°30' E 002°52'816.0
2019-Jul-17 17:30N 51°25' E 003°02'815.1
2019-Jul-17 17:00N 51°21' E 003°12'1 1.9
2019-Jul-17 16:30N 51°20' E 003°11'0 0.0
2019-Jul-17 16:00N 51°20' E 003°11'0 0.0
2019-Jul-17 15:30N 51°20' E 003°11'0 0.0
2019-Jul-17 15:00N 51°20' E 003°11'0 0.0
2019-Jul-17 14:30N 51°20' E 003°11'0 0.0
2019-Jul-17 13:59N 51°20' E 003°11'0 0.0
2019-Jul-17 13:29N 51°20' E 003°11'0 0.0
2019-Jul-17 12:59N 51°20' E 003°11'0 0.0
2019-Jul-17 12:30N 51°20' E 003°11'0 0.0
2019-Jul-17 12:00N 51°20' E 003°11'0 0.0
2019-Jul-17 11:30N 51°20' E 003°11'0 0.0
2019-Jul-17 11:00N 51°20' E 003°11'0 0.0
2019-Jul-17 10:30N 51°20' E 003°11'0 0.0
2019-Jul-17 10:00N 51°20' E 003°11'0 0.0
2019-Jul-17 09:30N 51°20' E 003°11'0 0.0
2019-Jul-17 09:00N 51°20' E 003°11'0 0.0
2019-Jul-17 08:30N 51°20' E 003°11'0 0.0
2019-Jul-17 08:00N 51°20' E 003°11'0 0.0
2019-Jul-17 07:30N 51°20' E 003°11'0 0.0
2019-Jul-17 07:00N 51°20' E 003°11'2 3.6
2019-Jul-17 06:31N 51°22' E 003°11'815.5
2019-Jul-17 06:01N 51°25' E 002°60'816.9
2019-Jul-17 05:31N 51°31' E 002°49'917.3
2019-Jul-17 05:00N 51°37' E 002°40'816.8
2019-Jul-17 04:31N 51°45' E 002°35'816.1
2019-Jul-17 04:01N 51°53' E 002°32'816.6
2019-Jul-17 03:31N 52°00' E 002°27'816.2
2019-Jul-17 03:01N 52°08' E 002°23'815.9
2019-Jul-17 02:31N 52°16' E 002°18'815.9
2019-Jul-17 02:01N 52°23' E 002°13'815.9
2019-Jul-17 01:31N 52°30' E 002°07'815.5
2019-Jul-17 01:01N 52°37' E 002°01'714.5
2019-Jul-17 00:31N 52°43' E 001°54'714.8
2019-Jul-17 00:01N 52°48' E 001°45'815.4
2019-Jul-16 23:31N 52°54' E 001°37'815.7
2019-Jul-16 23:01N 52°60' E 001°29'816.3
2019-Jul-16 22:30N 53°06' E 001°20'1616.4
2019-Jul-16 21:30N 53°18' E 001°02'2116.4
2019-Jul-16 20:12N 53°27' E 000°30'316.0
2019-Jul-16 20:01N 53°29' E 000°25'815.6
2019-Jul-16 19:31N 53°33' E 000°14'816.9
2019-Jul-16 19:00N 53°35' E 000°00'816.4
2019-Jul-16 18:30N 53°40' W 000°12'611.2
2019-Jul-16 18:00N 53°44' W 000°16'0 0.5
2019-Jul-16 17:28N 53°45' W 000°16'0 0.2
2019-Jul-16 17:00N 53°45' W 000°16'0 0.0
2019-Jul-16 16:30N 53°45' W 000°16'0 0.0
2019-Jul-16 16:00N 53°45' W 000°16'0 0.0
2019-Jul-16 15:30N 53°45' W 000°16'0 0.0
2019-Jul-16 15:00N 53°45' W 000°16'0 0.0
2019-Jul-16 14:30N 53°45' W 000°16'0 0.0
2019-Jul-16 14:00N 53°45' W 000°16'0 0.0
2019-Jul-16 13:30N 53°45' W 000°16'0 0.0
2019-Jul-16 13:00N 53°45' W 000°16'0 0.0
2019-Jul-16 12:30N 53°45' W 000°16'0 0.0
2019-Jul-16 12:00N 53°45' W 000°16'0 0.0
2019-Jul-16 11:30N 53°45' W 000°16'0 0.0
2019-Jul-16 11:00N 53°45' W 000°16'0 0.0
2019-Jul-16 10:30N 53°45' W 000°16'0 0.0
2019-Jul-16 10:00N 53°45' W 000°16'0 0.0
2019-Jul-16 09:30N 53°45' W 000°16'0 0.0
2019-Jul-16 09:00N 53°45' W 000°16'0 0.0
2019-Jul-16 08:30N 53°45' W 000°16'0 0.0
2019-Jul-16 08:00N 53°45' W 000°16'0 0.0
2019-Jul-16 07:30N 53°45' W 000°16'0 0.3
2019-Jul-16 07:00N 53°44' W 000°16'0 0.4
2019-Jul-16 06:30N 53°44' W 000°16'612.8
2019-Jul-16 06:00N 53°39' W 000°11'815.3
2019-Jul-16 05:30N 53°35' E 000°01'815.3
2019-Jul-16 05:00N 53°33' E 000°13'2813.7
2019-Jul-16 02:59N 53°21' E 000°55'1314.8
2019-Jul-16 02:06N 53°12' E 001°11'115.6
2019-Jul-16 02:00N 53°11' E 001°12'916.2
2019-Jul-16 01:28N 53°04' E 001°21'817.0
2019-Jul-16 01:01N 52°59' E 001°31'917.9
2019-Jul-16 00:31N 52°52' E 001°41'917.4
2019-Jul-16 00:01N 52°46' E 001°50'917.2
2019-Jul-15 23:31N 52°39' E 001°59'816.2
2019-Jul-15 23:01N 52°31' E 002°04'815.3
2019-Jul-15 22:31N 52°24' E 002°09'714.7
2019-Jul-15 22:01N 52°18' E 002°14'714.1
2019-Jul-15 21:30N 52°11' E 002°19'713.9
2019-Jul-15 21:00N 52°05' E 002°24'714.2
2019-Jul-15 20:30N 51°58' E 002°28'714.3
2019-Jul-15 20:00N 51°52' E 002°33'714.4
2019-Jul-15 19:30N 51°45' E 002°38'714.6
2019-Jul-15 19:00N 51°39' E 002°44'714.9
2019-Jul-15 18:30N 51°33' E 002°50'815.2
2019-Jul-15 18:01N 51°27' E 002°58'815.9
2019-Jul-15 17:30N 51°23' E 003°09'3 5.5
2019-Jul-15 16:56N 51°20' E 003°11'0 0.0
2019-Jul-15 16:29N 51°20' E 003°11'0 0.0
2019-Jul-15 15:56N 51°20' E 003°11'0 0.0
2019-Jul-15 15:28N 51°20' E 003°11'0 0.0
2019-Jul-15 14:58N 51°20' E 003°11'0 0.0
2019-Jul-15 14:28N 51°20' E 003°11'0 0.0
2019-Jul-15 13:58N 51°20' E 003°11'0 0.0
2019-Jul-15 13:25N 51°20' E 003°11'0 0.0
2019-Jul-15 12:57N 51°20' E 003°11'0 0.0
2019-Jul-15 12:18N 51°20' E 003°11'0 0.0
2019-Jul-15 12:00N 51°20' E 003°11'0 0.0
2019-Jul-15 11:27N 51°20' E 003°11'0 0.0
2019-Jul-15 10:59N 51°20' E 003°11'0 0.0
2019-Jul-15 10:29N 51°20' E 003°11'0 0.0
2019-Jul-15 09:56N 51°20' E 003°11'0 0.0
2019-Jul-15 09:23N 51°20' E 003°11'0 0.0
2019-Jul-15 08:53N 51°20' E 003°11'0 0.0
2019-Jul-15 08:28N 51°20' E 003°11'0 0.0
2019-Jul-15 07:52N 51°20' E 003°11'0 0.0
2019-Jul-15 07:25N 51°20' E 003°11'0 0.0
2019-Jul-15 07:00N 51°20' E 003°11'1 2.4
2019-Jul-15 06:30N 51°21' E 003°12'815.3
2019-Jul-15 06:01N 51°25' E 003°01'815.8
2019-Jul-15 05:30N 51°30' E 002°51'816.7
2019-Jul-15 05:00N 51°36' E 002°41'916.8
2019-Jul-15 04:30N 51°44' E 002°36'816.6
2019-Jul-15 04:01N 51°51' E 002°32'816.4
2019-Jul-15 03:30N 51°59' E 002°27'816.0
2019-Jul-15 03:00N 52°06' E 002°22'815.8
2019-Jul-15 02:31N 52°14' E 002°17'815.7
2019-Jul-15 02:01N 52°21' E 002°13'815.4
2019-Jul-15 01:30N 52°28' E 002°08'715.0
2019-Jul-15 01:00N 52°35' E 002°03'714.6
2019-Jul-15 00:30N 52°41' E 001°57'714.4
2019-Jul-15 00:01N 52°46' E 001°49'714.9
2019-Jul-14 23:31N 52°52' E 001°40'714.7
2019-Jul-14 23:01N 52°57' E 001°32'815.1
2019-Jul-14 22:30N 53°03' E 001°23'815.5
2019-Jul-14 22:00N 53°09' E 001°15'815.5
2019-Jul-14 21:30N 53°15' E 001°07'815.6
2019-Jul-14 21:00N 53°21' E 000°58'2116.0
2019-Jul-14 19:41N 53°29' E 000°25'315.8
2019-Jul-14 19:30N 53°30' E 000°21'815.4
2019-Jul-14 19:01N 53°33' E 000°09'918.6
2019-Jul-14 18:30N 53°37' W 000°05'816.3
2019-Jul-14 18:01N 53°43' W 000°15'2 3.8
2019-Jul-14 17:30N 53°44' W 000°16'0 0.2
2019-Jul-14 16:58N 53°45' W 000°16'0 0.0
2019-Jul-14 16:30N 53°45' W 000°16'0 0.0
2019-Jul-14 16:00N 53°45' W 000°16'0 0.0
2019-Jul-14 15:30N 53°45' W 000°16'0 0.0
2019-Jul-14 15:00N 53°45' W 000°16'0 0.0
2019-Jul-14 14:30N 53°45' W 000°16'0 0.0
2019-Jul-14 13:59N 53°45' W 000°16'0 0.0
2019-Jul-14 13:29N 53°45' W 000°16'0 0.0
2019-Jul-14 12:59N 53°45' W 000°16'0 0.0
2019-Jul-14 12:29N 53°45' W 000°16'0 0.0
2019-Jul-14 11:58N 53°45' W 000°16'0 0.0
2019-Jul-14 11:28N 53°45' W 000°16'0 0.0
2019-Jul-14 10:58N 53°45' W 000°16'0 0.0
2019-Jul-14 10:28N 53°45' W 000°16'0 0.0
2019-Jul-14 09:58N 53°45' W 000°16'0 0.0
2019-Jul-14 09:30N 53°45' W 000°16'0 0.0
2019-Jul-14 09:00N 53°45' W 000°16'0 0.0
2019-Jul-14 08:30N 53°45' W 000°16'0 0.0
2019-Jul-14 08:00N 53°45' W 000°16'0 0.2
2019-Jul-14 07:30N 53°44' W 000°16'0 0.3
2019-Jul-14 07:00N 53°44' W 000°17'3 6.2
2019-Jul-14 06:30N 53°42' W 000°14'611.7
2019-Jul-14 06:00N 53°38' W 000°07'713.5
2019-Jul-14 05:30N 53°35' E 000°03'713.9
2019-Jul-14 05:00N 53°33' E 000°15'6214.2
2019-Jul-14 00:36N 52°54' E 001°37'116.2
2019-Jul-14 00:30N 52°53' E 001°38'816.3
2019-Jul-14 00:00N 52°48' E 001°49'815.4
2019-Jul-13 23:30N 52°42' E 001°55'816.3
2019-Jul-13 23:00N 52°35' E 002°03'815.8
2019-Jul-13 22:30N 52°28' E 002°08'815.1
2019-Jul-13 22:00N 52°21' E 002°13'714.3
2019-Jul-13 21:30N 52°14' E 002°18'713.9
2019-Jul-13 21:00N 52°08' E 002°22'713.7
2019-Jul-13 20:28N 52°01' E 002°27'813.5
2019-Jul-13 19:54N 51°54' E 002°32'513.3
2019-Jul-13 19:29N 51°49' E 002°35'913.6
2019-Jul-13 18:48N 51°41' E 002°42'414.1
2019-Jul-13 18:30N 51°37' E 002°45'814.3
2019-Jul-13 17:57N 51°30' E 002°52'714.5
2019-Jul-13 17:30N 51°25' E 002°59'714.1
2019-Jul-13 17:00N 51°23' E 003°10'3 5.5
2019-Jul-13 16:30N 51°20' E 003°11'0 0.0
2019-Jul-13 15:51N 51°20' E 003°11'0 0.0
2019-Jul-13 15:30N 51°20' E 003°11'0 0.0
2019-Jul-13 15:00N 51°20' E 003°11'0 0.0
2019-Jul-13 14:30N 51°20' E 003°11'0 0.0
2019-Jul-13 13:56N 51°20' E 003°11'0 0.0
2019-Jul-13 13:17N 51°20' E 003°11'0 0.0
2019-Jul-13 12:53N 51°20' E 003°11'0 0.0
2019-Jul-13 12:20N 51°20' E 003°11'0 0.0
2019-Jul-13 11:56N 51°20' E 003°11'0 0.0
2019-Jul-13 11:25N 51°20' E 003°11'0 0.0
2019-Jul-13 10:58N 51°20' E 003°11'0 0.0
2019-Jul-13 10:28N 51°20' E 003°11'0 0.0
2019-Jul-13 09:58N 51°20' E 003°11'0 0.0
2019-Jul-13 09:27N 51°20' E 003°11'0 0.0
2019-Jul-13 08:51N 51°20' E 003°11'0 0.0
2019-Jul-13 08:21N 51°20' E 003°11'0 0.0
2019-Jul-13 07:45N 51°20' E 003°11'0 0.0
2019-Jul-13 07:27N 51°20' E 003°11'1 2.0
2019-Jul-13 07:00N 51°21' E 003°12'714.9
2019-Jul-13 06:30N 51°25' E 003°02'1815.5
2019-Jul-13 05:20N 51°37' E 002°40'616.0
2019-Jul-13 04:58N 51°42' E 002°37'1015.9
2019-Jul-13 04:21N 51°52' E 002°33'616.7
2019-Jul-13 04:00N 51°57' E 002°29'816.5
2019-Jul-13 03:30N 52°04' E 002°24'816.3
2019-Jul-13 03:00N 52°12' E 002°18'816.6
2019-Jul-13 02:30N 52°19' E 002°13'917.6
2019-Jul-13 02:00N 52°28' E 002°07'917.3
2019-Jul-13 01:30N 52°36' E 002°02'816.8
2019-Jul-13 01:00N 52°43' E 001°54'816.8
2019-Jul-13 00:30N 52°49' E 001°45'816.5
2019-Jul-13 00:00N 52°55' E 001°36'4915.7
2019-Jul-12 20:54N 53°27' E 000°35'715.5
2019-Jul-12 20:28N 53°31' E 000°26'715.3
2019-Jul-12 20:00N 53°33' E 000°14'816.5
2019-Jul-12 19:30N 53°35' E 000°01'715.0
2019-Jul-12 19:01N 53°38' W 000°10'612.6
2019-Jul-12 18:30N 53°44' W 000°16'1 1.9
2019-Jul-12 18:00N 53°44' W 000°16'0 0.2
2019-Jul-12 17:28N 53°45' W 000°16'0 0.0
2019-Jul-12 16:58N 53°45' W 000°16'0 0.0
2019-Jul-12 16:30N 53°45' W 000°16'0 0.0
2019-Jul-12 16:00N 53°45' W 000°16'0 0.0
2019-Jul-12 15:27N 53°45' W 000°16'0 0.0
2019-Jul-12 15:00N 53°45' W 000°16'  

Dump ship's entire track history